createdAt,value
2018-03-16T00:00:09.280Z,75.80
2018-03-16T00:02:36.760Z,75.80
2018-03-16T00:05:04.221Z,75.80
2018-03-16T00:07:31.692Z,76.00
2018-03-16T00:09:59.193Z,75.90
2018-03-16T00:12:26.648Z,76.00
2018-03-16T00:14:54.208Z,76.00
2018-03-16T00:17:21.673Z,76.30
2018-03-16T00:19:49.156Z,76.40
2018-03-16T00:22:22.364Z,76.30
2018-03-16T00:24:49.841Z,76.30
2018-03-16T00:27:17.324Z,76.50
2018-03-16T00:29:44.772Z,76.50
2018-03-16T00:32:12.257Z,77.30
2018-03-16T00:34:39.737Z,76.50
2018-03-16T00:37:07.189Z,76.70
2018-03-16T00:39:34.664Z,76.80
2018-03-16T00:42:02.133Z,76.80
2018-03-16T00:44:29.610Z,76.60
2018-03-16T00:46:57.829Z,76.80
2018-03-16T00:49:25.360Z,76.80
2018-03-16T00:51:52.812Z,76.80
2018-03-16T00:54:20.289Z,76.80
2018-03-16T00:56:47.750Z,76.90
2018-03-16T00:59:15.224Z,76.90
2018-03-16T01:01:42.686Z,77.00
2018-03-16T01:04:10.220Z,77.10
2018-03-16T01:06:37.950Z,77.10
2018-03-16T01:09:06.193Z,77.40
2018-03-16T01:11:33.707Z,77.40
2018-03-16T01:14:01.205Z,77.50
2018-03-16T01:16:28.652Z,77.50
2018-03-16T01:18:56.134Z,77.50
2018-03-16T01:21:23.588Z,77.50
2018-03-16T01:23:51.056Z,77.70
2018-03-16T01:26:18.553Z,77.80
2018-03-16T01:28:46.009Z,77.90
2018-03-16T01:31:13.481Z,77.80
2018-03-16T01:33:40.929Z,77.90
2018-03-16T01:36:08.433Z,78.90
2018-03-16T01:38:35.880Z,78.00
2018-03-16T01:41:04.113Z,78.40
2018-03-16T01:43:31.795Z,78.40
2018-03-16T01:45:59.273Z,78.40
2018-03-16T01:48:26.781Z,78.00
2018-03-16T01:50:55.017Z,78.60
2018-03-16T01:53:22.471Z,78.50
2018-03-16T01:55:49.945Z,78.60
2018-03-16T01:58:17.833Z,78.60
2018-03-16T02:00:45.285Z,78.80
2018-03-16T02:03:12.765Z,78.70
2018-03-16T02:05:41.053Z,79.20
2018-03-16T02:08:08.508Z,79.20
2018-03-16T02:10:36.000Z,79.00
2018-03-16T02:13:03.461Z,79.10
2018-03-16T02:15:30.928Z,79.30
2018-03-16T02:17:58.404Z,79.30
2018-03-16T02:20:25.881Z,79.50
2018-03-16T02:22:53.327Z,79.70
2018-03-16T02:25:20.805Z,79.60
2018-03-16T02:27:48.257Z,79.80
2018-03-16T02:30:15.737Z,79.90
2018-03-16T02:32:43.210Z,79.90
2018-03-16T02:35:10.679Z,80.10
2018-03-16T02:37:38.153Z,80.20
2018-03-16T02:40:05.648Z,80.10
2018-03-16T02:42:33.895Z,80.00
2018-03-16T02:45:01.366Z,79.90
2018-03-16T02:47:28.829Z,80.20
2018-03-16T02:49:56.300Z,80.20
2018-03-16T02:52:24.546Z,80.30
2018-03-16T02:54:52.020Z,80.30
2018-03-16T02:57:19.503Z,80.20
2018-03-16T02:59:47.746Z,80.30
2018-03-16T03:02:15.271Z,80.30
2018-03-16T03:04:42.733Z,80.30
2018-03-16T03:07:10.208Z,80.40
2018-03-16T03:09:37.665Z,80.40
2018-03-16T03:12:05.157Z,80.40
2018-03-16T03:14:32.633Z,80.50
2018-03-16T03:17:00.086Z,80.50
2018-03-16T03:19:27.555Z,80.70
2018-03-16T03:21:55.022Z,80.60
2018-03-16T03:24:22.500Z,80.50
2018-03-16T03:26:49.953Z,80.60
2018-03-16T03:29:17.438Z,80.70
2018-03-16T03:31:44.926Z,80.80
2018-03-16T03:34:13.207Z,80.90
2018-03-16T03:36:40.652Z,80.90
2018-03-16T03:39:08.141Z,80.90
2018-03-16T03:41:35.617Z,81.00
2018-03-16T03:44:03.082Z,81.10
2018-03-16T03:46:30.548Z,81.20
2018-03-16T03:48:58.024Z,81.20
2018-03-16T03:51:25.492Z,81.20
2018-03-16T03:53:52.953Z,81.20
2018-03-16T03:56:20.447Z,81.30
2018-03-16T03:58:47.897Z,81.20
2018-03-16T04:01:15.361Z,81.30
2018-03-16T04:03:43.597Z,81.40
2018-03-16T04:06:11.078Z,81.40
2018-03-16T04:08:38.526Z,81.50
2018-03-16T04:11:06.005Z,81.50
2018-03-16T04:13:33.458Z,81.60
2018-03-16T04:16:00.916Z,81.60
2018-03-16T04:18:28.398Z,81.60
2018-03-16T04:20:56.016Z,81.70
2018-03-16T04:23:23.493Z,82.50
2018-03-16T04:25:51.093Z,81.80
2018-03-16T04:28:20.121Z,82.00
2018-03-16T04:30:47.596Z,81.90
2018-03-16T04:33:15.044Z,81.90
2018-03-16T04:35:42.520Z,82.10
2018-03-16T04:38:10.812Z,82.10
2018-03-16T04:40:38.286Z,82.10
2018-03-16T04:43:05.761Z,82.20
2018-03-16T04:45:33.240Z,82.30
2018-03-16T04:48:00.756Z,82.30
2018-03-16T04:50:28.248Z,82.30
2018-03-16T04:52:55.696Z,82.30
2018-03-16T04:55:23.150Z,82.50
2018-03-16T04:57:50.625Z,82.40
2018-03-16T05:00:18.145Z,83.10
2018-03-16T05:02:45.591Z,82.20
2018-03-16T05:05:13.846Z,82.30
2018-03-16T05:07:41.297Z,82.30
2018-03-16T05:10:08.786Z,82.40
2018-03-16T05:12:37.013Z,82.50
2018-03-16T05:15:04.497Z,83.20
2018-03-16T05:17:31.953Z,82.50
2018-03-16T05:19:59.497Z,82.60
2018-03-16T05:22:26.979Z,82.60
2018-03-16T05:24:54.452Z,82.60
2018-03-16T05:27:21.909Z,82.60
2018-03-16T05:29:49.382Z,82.60
2018-03-16T05:32:16.865Z,82.60
2018-03-16T05:34:44.312Z,82.60
2018-03-16T05:37:12.025Z,82.60
2018-03-16T05:39:40.285Z,82.70
2018-03-16T05:42:07.774Z,82.70
2018-03-16T05:44:36.010Z,82.90
2018-03-16T05:47:03.549Z,82.80
2018-03-16T05:49:31.059Z,82.60
2018-03-16T05:51:58.517Z,82.60
2018-03-16T05:54:26.000Z,82.50
2018-03-16T05:56:53.455Z,82.50
2018-03-16T05:59:21.009Z,82.30
2018-03-16T06:01:49.243Z,82.40
2018-03-16T06:04:16.746Z,83.00
2018-03-16T06:06:44.198Z,82.50
2018-03-16T06:09:11.706Z,82.40
2018-03-16T06:11:39.184Z,82.40
2018-03-16T06:14:06.636Z,82.50
2018-03-16T06:16:34.116Z,82.60
2018-03-16T06:19:01.563Z,82.60
2018-03-16T06:21:29.053Z,82.50
2018-03-16T06:23:56.516Z,82.40
2018-03-16T06:26:24.013Z,82.40
2018-03-16T06:28:51.520Z,82.40
2018-03-16T06:31:19.757Z,82.20
2018-03-16T06:33:47.248Z,82.20
2018-03-16T06:36:14.697Z,82.10
2018-03-16T06:38:42.247Z,82.10
2018-03-16T06:41:09.729Z,82.40
2018-03-16T06:43:37.608Z,82.50
2018-03-16T06:46:06.252Z,82.50
2018-03-16T06:48:33.721Z,82.50
2018-03-16T06:51:01.294Z,82.40
2018-03-16T06:53:28.765Z,82.50
2018-03-16T06:55:56.996Z,82.60
2018-03-16T06:58:24.465Z,82.60
2018-03-16T07:00:51.973Z,82.70
2018-03-16T07:03:20.407Z,82.80
2018-03-16T07:05:47.888Z,82.80
2018-03-16T07:08:15.359Z,82.80
2018-03-16T07:10:43.617Z,83.00
2018-03-16T07:13:11.072Z,83.00
2018-03-16T07:15:38.524Z,83.60
2018-03-16T07:18:05.996Z,82.90
2018-03-16T07:20:34.254Z,83.40
2018-03-16T07:23:01.804Z,82.80
2018-03-16T07:25:29.277Z,82.80
2018-03-16T07:27:56.733Z,82.80
2018-03-16T07:30:24.200Z,82.70
2018-03-16T07:32:51.714Z,82.80
2018-03-16T07:35:19.124Z,82.60
2018-03-16T07:37:46.620Z,82.50
2018-03-16T07:40:14.087Z,82.60
2018-03-16T07:42:41.545Z,82.60
2018-03-16T07:45:09.029Z,82.40
2018-03-16T07:47:36.526Z,82.30
2018-03-16T07:50:03.981Z,82.20
2018-03-16T07:52:32.219Z,82.20
2018-03-16T07:54:59.732Z,82.20
2018-03-16T07:57:27.192Z,82.20
2018-03-16T07:59:54.676Z,82.40
2018-03-16T08:02:22.144Z,82.20
2018-03-16T08:04:50.368Z,82.00
2018-03-16T08:07:17.846Z,82.00
2018-03-16T08:09:45.337Z,82.00
2018-03-16T08:12:12.801Z,81.80
2018-03-16T08:14:40.313Z,81.90
2018-03-16T08:17:08.686Z,81.60
2018-03-16T08:19:36.266Z,81.50
2018-03-16T08:22:03.759Z,81.40
2018-03-16T08:24:31.221Z,81.30
2018-03-16T08:26:58.677Z,81.30
2018-03-16T08:29:26.149Z,81.10
2018-03-16T08:31:53.625Z,80.80
2018-03-16T08:34:21.080Z,80.70
2018-03-16T08:36:48.537Z,80.50
2018-03-16T08:39:16.018Z,80.50
2018-03-16T08:41:43.496Z,80.40
2018-03-16T08:44:10.989Z,80.40
2018-03-16T08:46:38.465Z,80.30
2018-03-16T08:49:06.006Z,80.00
2018-03-16T08:51:33.461Z,79.90
2018-03-16T08:54:00.932Z,79.80
2018-03-16T08:56:28.407Z,79.70
2018-03-16T08:58:55.856Z,79.70
2018-03-16T09:01:23.332Z,79.30
2018-03-16T09:03:50.788Z,79.10
2018-03-16T09:06:18.268Z,79.10
2018-03-16T09:08:45.712Z,79.10
2018-03-16T09:11:13.214Z,78.10
2018-03-16T09:13:46.627Z,77.50
2018-03-16T09:16:14.130Z,77.70
2018-03-16T09:18:42.425Z,77.50
2018-03-16T09:21:09.893Z,77.50
2018-03-16T09:23:37.377Z,77.50
2018-03-16T09:26:04.856Z,77.30
2018-03-16T09:28:32.325Z,76.60
2018-03-16T09:30:59.799Z,76.50
2018-03-16T09:33:27.272Z,76.20
2018-03-16T09:35:54.762Z,76.50
2018-03-16T09:38:22.241Z,76.50
2018-03-16T09:40:49.688Z,76.50
2018-03-16T09:43:17.173Z,76.60
2018-03-16T09:45:44.658Z,75.90
2018-03-16T09:48:12.166Z,75.30
2018-03-16T09:50:39.692Z,75.20
2018-03-16T09:53:07.102Z,75.30
2018-03-16T09:55:40.336Z,75.00
2018-03-16T09:58:07.833Z,75.00
2018-03-16T10:00:35.285Z,74.60
2018-03-16T10:03:02.758Z,74.70
2018-03-16T10:05:30.244Z,74.50
2018-03-16T10:07:58.480Z,74.80
2018-03-16T10:10:26.717Z,74.50
2018-03-16T10:12:54.194Z,74.40
2018-03-16T10:15:21.649Z,74.40
2018-03-16T10:17:49.162Z,74.00
2018-03-16T10:20:16.656Z,74.10
2018-03-16T10:22:44.137Z,74.00
2018-03-16T10:25:11.582Z,73.90
2018-03-16T10:27:39.081Z,74.10
2018-03-16T10:30:06.523Z,74.20
2018-03-16T10:32:33.971Z,74.10
2018-03-16T10:35:01.445Z,73.70
2018-03-16T10:37:28.930Z,73.60
2018-03-16T10:39:56.422Z,73.60
2018-03-16T10:42:23.879Z,73.60
2018-03-16T10:44:51.373Z,74.10
2018-03-16T10:47:18.829Z,73.50
2018-03-16T10:49:46.294Z,73.00
2018-03-16T10:52:13.809Z,72.60
2018-03-16T10:54:41.284Z,72.60
2018-03-16T10:57:08.760Z,72.80
2018-03-16T10:59:36.266Z,72.80
2018-03-16T11:02:10.257Z,72.60
2018-03-16T11:04:40.680Z,72.60
2018-03-16T11:07:17.985Z,72.60
2018-03-16T11:09:45.463Z,72.70
2018-03-16T11:12:12.926Z,72.30
2018-03-16T11:14:40.404Z,73.30
2018-03-16T11:17:07.853Z,72.30
2018-03-16T11:19:36.417Z,71.80
2018-03-16T11:22:04.630Z,72.00
2018-03-16T11:24:32.118Z,72.00
2018-03-16T11:26:59.574Z,72.10
2018-03-16T11:29:27.034Z,72.10
2018-03-16T11:31:54.505Z,71.60
2018-03-16T11:34:21.976Z,71.50
2018-03-16T11:36:50.213Z,71.00
2018-03-16T11:39:17.706Z,71.00
2018-03-16T11:41:45.937Z,70.40
2018-03-16T11:44:13.388Z,70.40
2018-03-16T11:46:40.889Z,70.20
2018-03-16T11:49:09.187Z,69.40
2018-03-16T11:51:36.669Z,69.30
2018-03-16T11:54:04.137Z,69.00
2018-03-16T11:56:31.610Z,69.30
2018-03-16T11:58:59.092Z,69.10
2018-03-16T12:01:26.571Z,68.90
2018-03-16T12:03:54.788Z,68.30
2018-03-16T12:06:22.290Z,68.20
2018-03-16T12:08:49.792Z,68.30
2018-03-16T12:11:17.241Z,68.60
2018-03-16T12:13:44.724Z,69.50
2018-03-16T12:16:12.209Z,68.60
2018-03-16T12:18:39.714Z,68.20
2018-03-16T12:21:07.185Z,68.00
2018-03-16T12:23:34.648Z,67.60
2018-03-16T12:26:02.105Z,67.70
2018-03-16T12:28:49.272Z,67.70
2018-03-16T12:30:57.104Z,67.30
2018-03-16T12:33:24.505Z,67.50
2018-03-16T12:35:51.978Z,66.80
2018-03-16T12:38:19.481Z,67.00
2018-03-16T12:40:47.722Z,67.10
2018-03-16T12:43:15.184Z,66.90
2018-03-16T12:45:42.663Z,67.10
2018-03-16T12:48:10.105Z,66.70
2018-03-16T12:50:38.352Z,65.70
2018-03-16T12:53:05.806Z,65.60
2018-03-16T12:55:33.265Z,65.30
2018-03-16T12:58:00.733Z,64.60
2018-03-16T13:00:28.202Z,64.80
2018-03-16T13:02:55.682Z,63.90
2018-03-16T13:05:23.921Z,62.70
2018-03-16T13:07:51.420Z,62.70
2018-03-16T13:10:18.989Z,62.60
2018-03-16T13:12:46.484Z,64.10
2018-03-16T13:15:13.957Z,64.40
2018-03-16T13:17:41.414Z,64.30
2018-03-16T13:20:08.892Z,64.30
2018-03-16T13:22:36.344Z,64.20
2018-03-16T13:25:03.789Z,63.80
2018-03-16T13:27:31.331Z,64.00
2018-03-16T13:29:58.748Z,64.10
2018-03-16T13:32:26.210Z,64.00
2018-03-16T13:34:53.693Z,64.00
2018-03-16T13:37:21.169Z,64.10
2018-03-16T13:39:48.671Z,63.90
2018-03-16T13:42:16.926Z,64.20
2018-03-16T13:44:44.414Z,64.20
2018-03-16T13:47:12.640Z,63.60
2018-03-16T13:49:40.103Z,63.60
2018-03-16T13:52:07.569Z,63.60
2018-03-16T13:54:35.049Z,63.60
2018-03-16T13:57:02.497Z,63.60
2018-03-16T13:59:30.119Z,63.50
2018-03-16T14:01:57.624Z,63.50
2018-03-16T14:04:25.097Z,63.80
2018-03-16T14:06:53.304Z,64.30
2018-03-16T14:09:20.849Z,64.20
2018-03-16T14:11:48.331Z,64.40
2018-03-16T14:14:15.862Z,64.30
2018-03-16T14:16:43.265Z,64.40
2018-03-16T14:19:10.737Z,64.70
2018-03-16T14:21:38.216Z,64.70
2018-03-16T14:24:05.664Z,64.70
2018-03-16T14:26:33.136Z,64.70
2018-03-16T14:29:00.584Z,64.60
2018-03-16T14:31:28.069Z,64.70
2018-03-16T14:33:55.629Z,64.90
2018-03-16T14:36:23.092Z,64.70
2018-03-16T14:38:50.572Z,64.80
2018-03-16T14:41:18.045Z,64.80
2018-03-16T14:43:45.507Z,64.80
2018-03-16T14:46:12.984Z,65.10
2018-03-16T14:48:40.437Z,65.20
2018-03-16T14:51:07.904Z,65.50
2018-03-16T14:53:35.377Z,65.40
2018-03-16T14:56:02.834Z,65.30
2018-03-16T14:58:31.069Z,65.70
2018-03-16T15:00:58.520Z,65.60
2018-03-16T15:03:26.001Z,65.50
2018-03-16T15:05:53.460Z,65.20
2018-03-16T15:08:20.960Z,65.20
2018-03-16T15:10:48.408Z,65.30
2018-03-16T15:13:15.880Z,65.30
2018-03-16T15:15:43.345Z,65.60
2018-03-16T15:18:10.829Z,65.50
2018-03-16T15:20:38.294Z,65.40
2018-03-16T15:23:05.743Z,65.70
2018-03-16T15:25:33.203Z,65.80
2018-03-16T15:28:00.873Z,65.70
2018-03-16T15:30:28.326Z,65.40
2018-03-16T15:32:55.809Z,65.40
2018-03-16T15:35:23.272Z,65.50
2018-03-16T15:37:50.738Z,65.70
2018-03-16T15:40:18.187Z,65.80
2018-03-16T15:42:45.677Z,65.70
2018-03-16T15:45:13.137Z,65.50
2018-03-16T15:47:40.591Z,65.60
2018-03-16T15:50:08.067Z,65.90
2018-03-16T15:52:35.608Z,65.90
2018-03-16T15:55:03.101Z,66.00
2018-03-16T15:57:30.564Z,65.80
2018-03-16T15:59:58.277Z,65.80
2018-03-16T16:02:25.748Z,66.00
2018-03-16T16:04:53.226Z,66.20
2018-03-16T16:07:20.689Z,66.00
2018-03-16T16:09:48.196Z,66.00
2018-03-16T16:12:15.630Z,66.00
2018-03-16T16:14:43.114Z,66.00
2018-03-16T16:17:10.585Z,65.70
2018-03-16T16:19:38.036Z,65.70
2018-03-16T16:22:06.302Z,65.10
2018-03-16T16:24:33.762Z,65.10
2018-03-16T16:27:01.229Z,65.30
2018-03-16T16:29:29.444Z,65.50
2018-03-16T16:31:56.984Z,65.50
2018-03-16T16:34:24.417Z,65.60
2018-03-16T16:36:51.864Z,65.80
2018-03-16T16:39:19.315Z,66.00
2018-03-16T16:41:46.783Z,65.80
2018-03-16T16:44:14.229Z,66.10
2018-03-16T16:46:41.709Z,66.30
2018-03-16T16:49:09.165Z,66.30
2018-03-16T16:51:37.401Z,66.30
2018-03-16T16:54:04.858Z,66.30
2018-03-16T16:56:32.346Z,66.50
2018-03-16T16:58:59.805Z,66.70
2018-03-16T17:01:27.313Z,66.70
2018-03-16T17:03:54.760Z,66.60
2018-03-16T17:06:22.212Z,67.00
2018-03-16T17:08:49.676Z,67.40
2018-03-16T17:11:17.131Z,67.30
2018-03-16T17:13:44.613Z,67.30
2018-03-16T17:16:12.104Z,67.60
2018-03-16T17:18:39.589Z,67.70
2018-03-16T17:21:07.054Z,67.80
2018-03-16T17:23:34.544Z,67.70
2018-03-16T17:26:02.006Z,67.70
2018-03-16T17:28:29.516Z,67.90
2018-03-16T17:30:57.763Z,68.30
2018-03-16T17:33:25.233Z,68.10
2018-03-16T17:35:52.693Z,68.20
2018-03-16T17:38:20.182Z,68.10
2018-03-16T17:40:47.671Z,68.40
2018-03-16T17:43:15.225Z,68.50
2018-03-16T17:45:42.712Z,68.60
2018-03-16T17:48:10.229Z,68.90
2018-03-16T17:50:37.705Z,69.20
2018-03-16T17:53:05.219Z,69.20
2018-03-16T17:55:33.449Z,69.10
2018-03-16T17:58:00.946Z,69.00
2018-03-16T18:00:28.405Z,69.20
2018-03-16T18:02:55.856Z,69.60
2018-03-16T18:05:23.331Z,69.50
2018-03-16T18:07:51.561Z,69.30
2018-03-16T18:10:19.053Z,70.10
2018-03-16T18:12:46.543Z,69.40
2018-03-16T18:15:14.031Z,69.40
2018-03-16T18:17:41.605Z,69.50
2018-03-16T18:20:09.123Z,69.60
2018-03-16T18:22:37.356Z,69.60
2018-03-16T18:25:04.800Z,69.60
2018-03-16T18:27:32.278Z,69.70
2018-03-16T18:29:59.736Z,69.70
2018-03-16T18:32:27.208Z,70.60
2018-03-16T18:34:55.435Z,69.60
2018-03-16T18:37:22.976Z,69.60
2018-03-16T18:39:50.420Z,69.70
2018-03-16T18:42:17.925Z,69.80
2018-03-16T18:44:45.393Z,69.70
2018-03-16T18:47:12.825Z,69.40
2018-03-16T18:49:40.316Z,69.20
2018-03-16T18:52:07.850Z,68.90
2018-03-16T18:54:36.144Z,68.90
2018-03-16T18:57:04.374Z,68.90
2018-03-16T18:59:31.888Z,69.20
2018-03-16T19:01:59.561Z,68.90
2018-03-16T19:04:27.840Z,69.40
2018-03-16T19:06:55.311Z,69.20
2018-03-16T19:09:23.540Z,70.10
2018-03-16T19:11:51.025Z,70.40
2018-03-16T19:14:18.472Z,69.80
2018-03-16T19:16:46.188Z,69.80
2018-03-16T19:19:13.659Z,69.50
2018-03-16T19:21:41.302Z,69.60
2018-03-16T19:24:09.557Z,69.30
2018-03-16T19:26:37.801Z,70.00
2018-03-16T19:29:05.266Z,69.20
2018-03-16T19:31:32.726Z,69.30
2018-03-16T19:34:00.196Z,69.10
2018-03-16T19:36:27.751Z,69.20
2018-03-16T19:38:55.285Z,69.30
2018-03-16T19:41:22.733Z,69.10
2018-03-16T19:43:50.200Z,68.80
2018-03-16T19:46:17.680Z,68.50
2018-03-16T19:48:45.193Z,68.50
2018-03-16T19:51:12.605Z,68.60
2018-03-16T19:53:40.075Z,68.40
2018-03-16T19:56:07.631Z,68.20
2018-03-16T19:58:35.113Z,68.00
2018-03-16T20:01:02.839Z,67.90
2018-03-16T20:03:30.355Z,67.90
2018-03-16T20:05:57.820Z,67.80
2018-03-16T20:08:25.292Z,67.70
2018-03-16T20:10:53.061Z,67.80
2018-03-16T20:13:20.758Z,67.80
2018-03-16T20:15:48.236Z,67.80
2018-03-16T20:18:16.946Z,67.70
2018-03-16T20:20:44.697Z,67.60
2018-03-16T20:23:12.210Z,67.50
2018-03-16T20:25:39.690Z,67.30
2018-03-16T20:28:08.270Z,67.10
2018-03-16T20:30:36.508Z,66.90
2018-03-16T20:33:04.196Z,66.90
2018-03-16T20:35:31.712Z,66.80
2018-03-16T20:37:59.411Z,66.90
2018-03-16T20:40:27.081Z,66.90
2018-03-16T20:42:54.903Z,66.70
2018-03-16T20:45:22.457Z,66.50
2018-03-16T20:47:50.115Z,66.60
2018-03-16T20:50:17.774Z,66.80
2018-03-16T20:52:45.424Z,67.00
2018-03-16T20:55:12.989Z,66.90
2018-03-16T20:57:41.340Z,66.50
2018-03-16T21:00:09.097Z,66.50
2018-03-16T21:02:36.824Z,66.30
2018-03-16T21:05:04.629Z,66.30
2018-03-16T21:07:32.121Z,66.30
2018-03-16T21:09:59.813Z,66.30
2018-03-16T21:12:27.393Z,66.30
2018-03-16T21:14:55.057Z,66.10
2018-03-16T21:17:22.637Z,66.10
2018-03-16T21:19:50.984Z,65.90
2018-03-16T21:22:18.811Z,65.80
2018-03-16T21:24:47.328Z,65.70
2018-03-16T21:27:14.854Z,65.60
2018-03-16T21:29:42.536Z,65.60
2018-03-16T21:32:10.036Z,65.60
2018-03-16T21:34:37.496Z,65.70
2018-03-16T21:37:05.025Z,65.40
2018-03-16T21:39:32.742Z,65.10
2018-03-16T21:42:00.313Z,65.70
2018-03-16T21:44:28.546Z,64.70
2018-03-16T21:46:56.781Z,64.60
2018-03-16T21:49:24.248Z,64.60
2018-03-16T21:51:51.697Z,65.00
2018-03-16T21:54:19.152Z,64.70
2018-03-16T21:56:46.869Z,64.80
2018-03-16T21:59:14.352Z,64.60
2018-03-16T22:01:41.827Z,64.60
2018-03-16T22:04:10.071Z,64.90
2018-03-16T22:06:37.516Z,64.90
2018-03-16T22:09:05.020Z,64.90
2018-03-16T22:11:33.237Z,64.90
2018-03-16T22:14:00.816Z,64.90
2018-03-16T22:16:28.269Z,64.50
2018-03-16T22:18:55.745Z,64.40
2018-03-16T22:21:23.188Z,64.50
2018-03-16T22:23:50.680Z,64.40
2018-03-16T22:26:18.149Z,64.20
2018-03-16T22:28:45.594Z,64.20
2018-03-16T22:31:13.073Z,64.00
2018-03-16T22:33:40.521Z,64.10
2018-03-16T22:36:08.729Z,63.90
2018-03-16T22:38:36.212Z,63.80
2018-03-16T22:41:03.666Z,63.90
2018-03-16T22:43:31.114Z,63.60
2018-03-16T22:45:58.581Z,63.70
2018-03-16T22:48:26.033Z,63.50
2018-03-16T22:50:53.504Z,63.60
2018-03-16T22:53:20.978Z,63.90
2018-03-16T22:55:48.428Z,64.00
2018-03-16T22:58:15.900Z,63.80
2018-03-16T23:00:43.337Z,63.20
2018-03-16T23:03:10.784Z,63.30
2018-03-16T23:05:38.265Z,63.30
2018-03-16T23:08:05.705Z,63.20
2018-03-16T23:10:33.173Z,63.50
2018-03-16T23:13:00.644Z,63.60
2018-03-16T23:15:28.092Z,63.40
2018-03-16T23:17:55.574Z,63.30
2018-03-16T23:20:23.029Z,63.30
2018-03-16T23:22:50.489Z,63.40
2018-03-16T23:25:17.958Z,63.40
2018-03-16T23:27:45.428Z,63.40
2018-03-16T23:30:12.982Z,63.10
2018-03-16T23:32:40.449Z,63.20
2018-03-16T23:35:07.897Z,63.10
2018-03-16T23:37:35.346Z,62.70
2018-03-16T23:40:03.593Z,62.60
2018-03-16T23:42:31.037Z,62.50
2018-03-16T23:44:58.513Z,62.80
2018-03-16T23:47:25.985Z,62.80
2018-03-16T23:49:53.456Z,62.60
2018-03-16T23:52:20.905Z,62.40
2018-03-16T23:54:48.393Z,62.30
2018-03-16T23:57:15.844Z,62.30
2018-03-16T23:59:43.381Z,62.70
